^^
Saratoga-Weather Station Historical Data
Daily Summary for September 1, 2021 Units:  Metric    English   Both
Daily Weekly Monthly Yearly Custom
  High: Low: Average:
Temperature: 18.2 °C 4.4 °C 11.1 °C
Dew Point: 10.8 °C 3.7 °C 7.6 °C
Humidity: 97% 51% 81%
Wind Speed: 11.1km/h 0km/h 1.2km/h
Wind Gust: 19.3km/h - -
Wind- - SSW
Pressure: 1024.0 hPa 1015.2 hPa -
Precipitation: 0.0 mm    
Historical Graphs
 
 
Tabular Data for September 1, 2021
Time Temperature Dew Point Pressure Wind Wind Speed Wind Gust Humidity Rainfall Rate (Hourly) solar
00:03 7.4 °C 5.5 °C 1024.0 hPa Calm     88% 0.0 mm 0 W/m2
00:08 7.4 °C 5.7 °C 1023.7 hPa Calm     89% 0.0 mm 0 W/m2
00:13 7.4 °C 5.7 °C 1023.7 hPa Calm     89% 0.0 mm 0 W/m2
00:18 7.3 °C 5.6 °C 1023.7 hPa Calm     89% 0.0 mm 0 W/m2
00:23 7.3 °C 5.6 °C 1023.7 hPa Calm     89% 0.0 mm 0 W/m2
00:28 7.2 °C 5.7 °C 1023.7 hPa Calm     90% 0.0 mm 0 W/m2
00:33 7.2 °C 5.7 °C 1023.7 hPa Calm     90% 0.0 mm 0 W/m2
00:38 7.2 °C 5.7 °C 1023.4 hPa Calm     90% 0.0 mm 0 W/m2
00:43 7.1 °C 5.6 °C 1023.4 hPa Calm     90% 0.0 mm 0 W/m2
00:48 7.2 °C 5.8 °C 1023.4 hPa Calm     91% 0.0 mm 0 W/m2
00:53 7.2 °C 5.8 °C 1023.4 hPa Calm     91% 0.0 mm 0 W/m2
00:58 7.2 °C 5.8 °C 1023.4 hPa WNW 1.4 km/h 3.2 km/h 91% 0.0 mm 0 W/m2
01:04 7.2 °C 5.8 °C 1023.4 hPa Calm     91% 0.0 mm 0 W/m2
01:09 7.2 °C 5.8 °C 1023.4 hPa Calm     91% 0.0 mm 0 W/m2
01:14 7.2 °C 5.8 °C 1023.4 hPa Calm     91% 0.0 mm 0 W/m2
01:19 7.2 °C 5.8 °C 1023.4 hPa Calm   1.6 km/h 91% 0.0 mm 0 W/m2
01:24 7.1 °C 5.7 °C 1023.0 hPa Calm     91% 0.0 mm 0 W/m2
01:29 7 °C 5.6 °C 1023.0 hPa Calm   1.6 km/h 91% 0.0 mm 0 W/m2
01:34 6.9 °C 5.5 °C 1023.0 hPa Calm     91% 0.0 mm 0 W/m2
01:39 6.8 °C 5.4 °C 1023.0 hPa Calm     91% 0.0 mm 0 W/m2
01:44 6.8 °C 5.4 °C 1023.0 hPa Calm     91% 0.0 mm 0 W/m2
01:49 6.7 °C 5.3 °C 1023.0 hPa Calm     91% 0.0 mm 0 W/m2
01:54 6.6 °C 5.2 °C 1023.0 hPa Calm     91% 0.0 mm 0 W/m2
01:59 6.5 °C 5.1 °C 1022.7 hPa Calm     91% 0.0 mm 0 W/m2
02:04 6.4 °C 5 °C 1022.7 hPa Calm     91% 0.0 mm 0 W/m2
02:09 6.3 °C 5.1 °C 1022.7 hPa Calm     92% 0.0 mm 0 W/m2
02:14 6.3 °C 5.1 °C 1022.7 hPa Calm     92% 0.0 mm 0 W/m2
02:19 6.3 °C 5.1 °C 1022.7 hPa Calm     92% 0.0 mm 0 W/m2
02:24 6.2 °C 5 °C 1022.7 hPa Calm     92% 0.0 mm 0 W/m2
02:29 6.2 °C 5.2 °C 1022.7 hPa Calm     93% 0.0 mm 0 W/m2
02:34 6.2 °C 5.2 °C 1022.4 hPa Calm     93% 0.0 mm 0 W/m2
02:39 6.1 °C 5.1 °C 1022.4 hPa Calm     93% 0.0 mm 0 W/m2
02:44 6.1 °C 5.1 °C 1022.4 hPa Calm     93% 0.0 mm 0 W/m2
02:49 6.1 °C 5.1 °C 1022.7 hPa WNW 1.4 km/h 1.6 km/h 93% 0.0 mm 0 W/m2
02:54 6 °C 5 °C 1022.4 hPa Calm   1.6 km/h 93% 0.0 mm 0 W/m2
02:59 5.9 °C 4.9 °C 1022.4 hPa Calm     93% 0.0 mm 0 W/m2
03:04 5.8 °C 4.8 °C 1022.4 hPa Calm   1.6 km/h 93% 0.0 mm 0 W/m2
03:09 5.8 °C 4.8 °C 1022.4 hPa Calm     93% 0.0 mm 0 W/m2
03:14 5.8 °C 4.8 °C 1022.0 hPa Calm   1.6 km/h 93% 0.0 mm 0 W/m2
03:19 5.7 °C 4.7 °C 1022.0 hPa Calm     93% 0.0 mm 0 W/m2
03:24 5.7 °C 4.8 °C 1022.0 hPa Calm   1.6 km/h 94% 0.0 mm 0 W/m2
03:29 5.7 °C 4.8 °C 1022.0 hPa Calm     94% 0.0 mm 0 W/m2
03:34 5.7 °C 4.8 °C 1022.0 hPa Calm     94% 0.0 mm 0 W/m2
03:39 5.7 °C 4.8 °C 1022.0 hPa Calm     94% 0.0 mm 0 W/m2
03:44 5.7 °C 4.8 °C 1021.7 hPa Calm     94% 0.0 mm 0 W/m2
03:49 5.7 °C 4.8 °C 1021.7 hPa Calm     94% 0.0 mm 0 W/m2
03:54 5.6 °C 4.7 °C 1021.7 hPa Calm     94% 0.0 mm 0 W/m2
03:59 5.6 °C 4.7 °C 1021.7 hPa Calm     94% 0.0 mm 0 W/m2
04:04 5.5 °C 4.6 °C 1021.7 hPa Calm     94% 0.0 mm 0 W/m2
04:09 5.6 °C 4.7 °C 1021.3 hPa Calm     94% 0.0 mm 0 W/m2
04:14 5.6 °C 4.9 °C 1021.7 hPa Calm     95% 0.0 mm 0 W/m2
04:19 5.6 °C 4.9 °C 1021.7 hPa Calm     95% 0.0 mm 0 W/m2
04:24 5.6 °C 4.9 °C 1021.3 hPa Calm     95% 0.0 mm 0 W/m2
04:29 5.6 °C 4.9 °C 1021.3 hPa Calm     95% 0.0 mm 0 W/m2
04:34 5.5 °C 4.8 °C 1021.3 hPa Calm     95% 0.0 mm 0 W/m2
04:39 5.4 °C 4.5 °C 1021.3 hPa Calm     94% 0.0 mm 0 W/m2
04:44 5.4 °C 4.5 °C 1021.3 hPa Calm     94% 0.0 mm 0 W/m2
04:49 5.3 °C 4.4 °C 1021.0 hPa Calm     94% 0.0 mm 0 W/m2
04:54 5.3 °C 4.6 °C 1021.0 hPa Calm     95% 0.0 mm 0 W/m2
04:59 5.3 °C 4.6 °C 1021.0 hPa Calm     95% 0.0 mm 0 W/m2
05:04 5.3 °C 4.6 °C 1021.0 hPa Calm     95% 0.0 mm 0 W/m2
05:09 5.3 °C 4.6 °C 1021.0 hPa Calm     95% 0.0 mm 0 W/m2
05:14 5.3 °C 4.6 °C 1021.0 hPa Calm     95% 0.0 mm 0 W/m2
05:19 5.3 °C 4.6 °C 1021.0 hPa Calm     95% 0.0 mm 0 W/m2
05:24 5.3 °C 4.6 °C 1021.0 hPa Calm     95% 0.0 mm 0 W/m2
05:29 5.3 °C 4.6 °C 1021.0 hPa Calm     95% 0.0 mm 0 W/m2
05:34 5.2 °C 4.5 °C 1020.7 hPa Calm     95% 0.0 mm 0 W/m2
05:39 5.2 °C 4.5 °C 1020.7 hPa Calm     95% 0.0 mm 0 W/m2
05:45 5.2 °C 4.5 °C 1020.7 hPa Calm     95% 0.0 mm 0 W/m2
05:50 5.2 °C 4.5 °C 1020.7 hPa Calm     95% 0.0 mm 0 W/m2
05:55 5.1 °C 4.4 °C 1020.7 hPa Calm     95% 0.0 mm 0 W/m2
06:00 5.1 °C 4.4 °C 1020.7 hPa Calm     95% 0.0 mm 0 W/m2
06:05 5.1 °C 4.4 °C 1020.7 hPa Calm     95% 0.0 mm 0 W/m2
06:10 5 °C 4.3 °C 1020.7 hPa Calm     95% 0.0 mm 0 W/m2
06:15 4.9 °C 4.2 °C 1020.7 hPa Calm     95% 0.0 mm 0 W/m2
06:20 4.9 °C 4.2 °C 1020.7 hPa Calm     95% 0.0 mm 0 W/m2
06:25 4.8 °C 4.1 °C 1020.7 hPa Calm     95% 0.0 mm 0 W/m2
06:30 4.8 °C 4.1 °C 1020.7 hPa Calm     95% 0.0 mm 0 W/m2
06:35 4.8 °C 4.1 °C 1020.7 hPa Calm     95% 0.0 mm 0 W/m2
06:40 4.7 °C 4 °C 1020.7 hPa Calm     95% 0.0 mm 0 W/m2
06:45 4.7 °C 4 °C 1020.7 hPa Calm     95% 0.0 mm 0 W/m2
06:50 4.6 °C 3.9 °C 1020.7 hPa Calm     95% 0.0 mm 0 W/m2
06:55 4.6 °C 3.9 °C 1020.7 hPa Calm     95% 0.0 mm 0 W/m2
07:00 4.6 °C 3.9 °C 1020.7 hPa Calm     95% 0.0 mm 0 W/m2
07:05 4.6 °C 3.9 °C 1020.7 hPa Calm     95% 0.0 mm 0 W/m2
07:10 4.5 °C 3.8 °C 1020.7 hPa Calm     95% 0.0 mm 0 W/m2
07:15 4.5 °C 3.8 °C 1020.7 hPa Calm     95% 0.0 mm 0 W/m2
07:20 4.5 °C 3.8 °C 1020.7 hPa Calm     95% 0.0 mm 0 W/m2
07:25 4.4 °C 3.7 °C 1020.7 hPa Calm     95% 0.0 mm 0 W/m2
07:30 4.4 °C 3.7 °C 1020.7 hPa Calm     95% 0.0 mm 0 W/m2
07:35 4.4 °C 3.8 °C 1020.7 hPa Calm     96% 0.0 mm 0 W/m2
07:40 4.5 °C 3.9 °C 1020.3 hPa Calm     96% 0.0 mm 0 W/m2
07:45 4.6 °C 4 °C 1020.7 hPa Calm     96% 0.0 mm 5 W/m2
07:50 4.7 °C 4.1 °C 1020.7 hPa Calm     96% 0.0 mm 7 W/m2
07:55 4.7 °C 4.1 °C 1020.3 hPa Calm     96% 0.0 mm 11 W/m2
08:01 4.6 °C 4 °C 1020.3 hPa Calm     96% 0.0 mm 12 W/m2
08:06 4.6 °C 4 °C 1020.3 hPa Calm     96% 0.0 mm 16 W/m2
08:11 4.6 °C 4 °C 1020.3 hPa Calm     96% 0.0 mm 18 W/m2
08:16 4.6 °C 4 °C 1020.3 hPa Calm     96% 0.0 mm 19 W/m2
08:21 4.6 °C 4 °C 1020.3 hPa Calm     96% 0.0 mm 21 W/m2
08:26 4.6 °C 4 °C 1020.3 hPa Calm     96% 0.0 mm 25 W/m2
08:31 4.7 °C 4.1 °C 1020.3 hPa Calm     96% 0.0 mm 26 W/m2
08:36 4.8 °C 4.2 °C 1020.3 hPa Calm     96% 0.0 mm 28 W/m2
08:41 4.8 °C 4.2 °C 1020.3 hPa Calm     96% 0.0 mm 30 W/m2
08:46 4.9 °C 4.3 °C 1020.3 hPa Calm     96% 0.0 mm 30 W/m2
08:51 5 °C 4.4 °C 1020.3 hPa Calm     96% 0.0 mm 32 W/m2
08:56 5.1 °C 4.5 °C 1020.3 hPa Calm     96% 0.0 mm 33 W/m2
09:01 5.2 °C 4.6 °C 1020.3 hPa Calm     96% 0.0 mm 35 W/m2
09:06 5.3 °C 4.7 °C 1020.3 hPa Calm     96% 0.0 mm 35 W/m2
09:11 5.4 °C 4.8 °C 1020.3 hPa Calm     96% 0.0 mm 42 W/m2
09:16 5.6 °C 5 °C 1020.3 hPa Calm     96% 0.0 mm 188 W/m2
09:21 5.8 °C 5.2 °C 1020.3 hPa Calm     96% 0.0 mm 193 W/m2
09:26 6.3 °C 5.9 °C 1020.3 hPa Calm     97% 0.0 mm 211 W/m2
09:31 6.5 °C 6.1 °C 1020.3 hPa Calm     97% 0.0 mm 218 W/m2
09:37 6.7 °C 6.3 °C 1020.3 hPa Calm   3.2 km/h 97% 0.0 mm 221 W/m2
09:42 7 °C 6.6 °C 1020.3 hPa NNE 1.4 km/h 3.2 km/h 97% 0.0 mm 243 W/m2
09:47 7.2 °C 6.8 °C 1020.3 hPa East 1.4 km/h 1.6 km/h 97% 0.0 mm 250 W/m2
09:52 7.4 °C 7 °C 1020.3 hPa ESE 1.4 km/h 3.2 km/h 97% 0.0 mm 281 W/m2
09:57 7.7 °C 7.3 °C 1020.3 hPa Calm     97% 0.0 mm 301 W/m2
10:02 7.9 °C 7.5 °C 1020.3 hPa ENE 1.4 km/h 4.8 km/h 97% 0.0 mm 308 W/m2
10:07 8.4 °C 8 °C 1020.3 hPa Calm   1.6 km/h 97% 0.0 mm 315 W/m2
10:12 8.9 °C 8.3 °C 1020.3 hPa ENE 3.2 km/h 3.2 km/h 96% 0.0 mm 327 W/m2
10:17 9.3 °C 8.5 °C 1020.3 hPa ESE 4.7 km/h 4.8 km/h 95% 0.0 mm 283 W/m2
10:22 9.7 °C 8.5 °C 1020.3 hPa SSE 3.2 km/h 3.2 km/h 92% 0.0 mm 355 W/m2
10:27 9.9 °C 8.2 °C 1020.3 hPa Calm   3.2 km/h 89% 0.0 mm 373 W/m2
10:32 10.3 °C 8.4 °C 1020.0 hPa ESE 3.2 km/h 4.8 km/h 88% 0.0 mm 380 W/m2
10:37 10.6 °C 8.4 °C 1020.0 hPa NNE 3.2 km/h 4.8 km/h 86% 0.0 mm 383 W/m2
10:42 10.8 °C 8.4 °C 1020.0 hPa NE 1.4 km/h 1.6 km/h 85% 0.0 mm 369 W/m2
10:47 11 °C 8.4 °C 1020.0 hPa ESE 9.7 km/h 9.7 km/h 84% 0.0 mm 408 W/m2
10:52 11.2 °C 8.2 °C 1020.0 hPa East 3.2 km/h 4.8 km/h 82% 0.0 mm 431 W/m2
10:57 11.3 °C 8.3 °C 1019.6 hPa ENE 4.7 km/h 9.7 km/h 82% 0.0 mm 462 W/m2
11:02 11.6 °C 8.6 °C 1019.6 hPa NE 3.2 km/h 4.8 km/h 82% 0.0 mm 452 W/m2
11:07 11.8 °C 8.5 °C 1019.6 hPa NE 3.2 km/h 6.4 km/h 80% 0.0 mm 461 W/m2
11:12 11.9 °C 8.6 °C 1019.6 hPa East 3.2 km/h 4.8 km/h 80% 0.0 mm 468 W/m2
11:17 12.2 °C 8.9 °C 1019.6 hPa East 1.4 km/h 4.8 km/h 80% 0.0 mm 490 W/m2
11:22 12.5 °C 9 °C 1019.6 hPa East 3.2 km/h 4.8 km/h 79% 0.0 mm 503 W/m2
11:27 12.9 °C 9.2 °C 1019.3 hPa East 4.7 km/h 6.4 km/h 78% 0.0 mm 503 W/m2
11:32 13.3 °C 9.4 °C 1019.3 hPa ESE 4.7 km/h 4.8 km/h 77% 0.0 mm 468 W/m2
11:37 13.6 °C 9.3 °C 1019.3 hPa East 1.4 km/h 6.4 km/h 75% 0.0 mm 464 W/m2
11:42 13.8 °C 9.4 °C 1019.0 hPa Calm   4.8 km/h 75% 0.0 mm 478 W/m2
11:47 14.1 °C 9.3 °C 1019.0 hPa ESE 6.4 km/h 8 km/h 73% 0.0 mm 531 W/m2
11:52 14.3 °C 9.5 °C 1019.0 hPa Calm   6.4 km/h 73% 0.0 mm 538 W/m2
11:57 14.6 °C 9.6 °C 1019.0 hPa East 1.4 km/h 9.7 km/h 72% 0.0 mm 515 W/m2
12:02 14.8 °C 9.6 °C 1019.0 hPa ENE 1.4 km/h 4.8 km/h 71% 0.0 mm 541 W/m2
12:07 15.1 °C 9.9 °C 1019.0 hPa ENE 4.7 km/h 9.7 km/h 71% 0.0 mm 545 W/m2
12:12 15.2 °C 9.5 °C 1018.6 hPa NE 6.4 km/h 6.4 km/h 69% 0.0 mm 445 W/m2
12:17 15.3 °C 9.6 °C 1018.6 hPa Calm   8 km/h 69% 0.0 mm 545 W/m2
12:22 15.5 °C 9.8 °C 1018.6 hPa SSE 1.4 km/h 4.8 km/h 69% 0.0 mm 483 W/m2
12:27 15.7 °C 10 °C 1018.6 hPa ENE 3.2 km/h 9.7 km/h 69% 0.0 mm 485 W/m2
12:32 15.8 °C 10.1 °C 1018.3 hPa NE 1.4 km/h 6.4 km/h 69% 0.0 mm 338 W/m2
12:37 15.9 °C 10 °C 1018.3 hPa North 1.4 km/h 9.7 km/h 68% 0.0 mm 580 W/m2
12:42 16.2 °C 10.3 °C 1018.3 hPa WNW 3.2 km/h 4.8 km/h 68% 0.0 mm 584 W/m2
12:47 16.3 °C 10.2 °C 1018.0 hPa WNW 3.2 km/h 8 km/h 67% 0.0 mm 601 W/m2
12:52 16.4 °C 10 °C 1018.3 hPa Calm   6.4 km/h 66% 0.0 mm 610 W/m2
12:57 16.7 °C 10.3 °C 1018.3 hPa SW 3.2 km/h 4.8 km/h 66% 0.0 mm 622 W/m2
13:02 16.9 °C 10.3 °C 1018.3 hPa ENE 3.2 km/h 6.4 km/h 65% 0.0 mm 605 W/m2
13:07 17.2 °C 9.4 °C 1018.3 hPa NNE 1.4 km/h 6.4 km/h 60% 0.0 mm 547 W/m2
13:12 17.4 °C 8.8 °C 1018.0 hPa NNW 3.2 km/h 16.1 km/h 57% 0.0 mm 584 W/m2
13:17 17.4 °C 8.5 °C 1018.0 hPa NNW 3.2 km/h 17.7 km/h 56% 0.0 mm 587 W/m2
13:22 17.6 °C 9 °C 1018.0 hPa East 11.1 km/h 11.3 km/h 57% 0.0 mm 652 W/m2
13:27 17.5 °C 8.6 °C 1018.0 hPa Calm   9.7 km/h 56% 0.0 mm 628 W/m2
13:32 17.6 °C 8.5 °C 1018.0 hPa WNW 6.4 km/h 6.4 km/h 55% 0.0 mm 684 W/m2
13:37 17.7 °C 8.3 °C 1018.0 hPa NNW 1.4 km/h 11.3 km/h 54% 0.0 mm 698 W/m2
13:42 17.7 °C 8.3 °C 1017.6 hPa Calm   4.8 km/h 54% 0.0 mm 573 W/m2
13:47 17.9 °C 8.5 °C 1017.6 hPa NNE 3.2 km/h 9.7 km/h 54% 0.0 mm 643 W/m2
13:52 17.9 °C 8.2 °C 1017.6 hPa SW 3.2 km/h 6.4 km/h 53% 0.0 mm 533 W/m2
13:57 17.7 °C 8.3 °C 1017.3 hPa SW 4.7 km/h 9.7 km/h 54% 0.0 mm 255 W/m2
14:02 17.7 °C 8.3 °C 1017.3 hPa SSE 3.2 km/h 4.8 km/h 54% 0.0 mm 220 W/m2
14:07 17.6 °C 8.2 °C 1017.3 hPa NNW 3.2 km/h 6.4 km/h 54% 0.0 mm 218 W/m2
14:12 17.6 °C 7.9 °C 1017.3 hPa NW 6.4 km/h 8 km/h 53% 0.0 mm 209 W/m2
14:17 17.5 °C 8.1 °C 1017.3 hPa ENE 3.2 km/h 6.4 km/h 54% 0.0 mm 206 W/m2
14:22 17.5 °C 8.4 °C 1017.3 hPa NW 3.2 km/h 8 km/h 55% 0.0 mm 186 W/m2
14:27 17.6 °C 8.7 °C 1017.3 hPa West 3.2 km/h 11.3 km/h 56% 0.0 mm 179 W/m2
14:32 17.6 °C 8.5 °C 1017.3 hPa Calm   14.5 km/h 55% 0.0 mm 178 W/m2
14:37 17.7 °C 8.8 °C 1017.3 hPa NW 6.4 km/h 8 km/h 56% 0.0 mm 185 W/m2
14:42 17.8 °C 9.2 °C 1016.9 hPa WNW 4.7 km/h 6.4 km/h 57% 0.0 mm 206 W/m2
14:47 18 °C 8.8 °C 1016.9 hPa West 6.4 km/h 11.3 km/h 55% 0.0 mm 225 W/m2
14:52 18 °C 8.8 °C 1016.9 hPa Calm   6.4 km/h 55% 0.0 mm 262 W/m2
14:57 18.1 °C 8.9 °C 1016.9 hPa SW 1.4 km/h 9.7 km/h 55% 0.0 mm 327 W/m2
15:02 18.2 °C 9.3 °C 1016.9 hPa West 11.1 km/h 11.3 km/h 56% 0.0 mm 362 W/m2
15:07 18.1 °C 7.8 °C 1016.9 hPa NW 4.7 km/h 11.3 km/h 51% 0.0 mm 427 W/m2
15:12 17.9 °C 8.5 °C 1016.9 hPa WSW 3.2 km/h 9.7 km/h 54% 0.0 mm 250 W/m2
15:17 18 °C 9.1 °C 1016.6 hPa SE 3.2 km/h 6.4 km/h 56% 0.0 mm 374 W/m2
15:22 18.1 °C 8.4 °C 1016.6 hPa Calm   9.7 km/h 53% 0.0 mm 353 W/m2
15:27 18.1 °C 8.6 °C 1016.6 hPa WNW 1.4 km/h 6.4 km/h 54% 0.0 mm 278 W/m2
15:32 18.1 °C 8.4 °C 1016.6 hPa ESE 1.4 km/h 4.8 km/h 53% 0.0 mm 237 W/m2
15:37 18.1 °C 8.4 °C 1016.6 hPa West 3.2 km/h 4.8 km/h 53% 0.0 mm 204 W/m2
15:42 17.9 °C 8.7 °C 1016.6 hPa Calm   6.4 km/h 55% 0.0 mm 207 W/m2
15:47 17.8 °C 8.4 °C 1016.6 hPa NW 1.4 km/h 12.9 km/h 54% 0.0 mm 207 W/m2
15:52 17.8 °C 8.1 °C 1016.3 hPa Calm   6.4 km/h 53% 0.0 mm 227 W/m2
15:57 17.8 °C 8.4 °C 1016.3 hPa Calm   3.2 km/h 54% 0.0 mm 301 W/m2
16:02 17.9 °C 8.7 °C 1016.3 hPa Calm   3.2 km/h 55% 0.0 mm 257 W/m2
16:07 18.1 °C 9.7 °C 1016.3 hPa SE 1.4 km/h 3.2 km/h 58% 0.0 mm 192 W/m2
16:12 18 °C 9.1 °C 1016.3 hPa East 1.4 km/h 4.8 km/h 56% 0.0 mm 200 W/m2
16:17 17.9 °C 9 °C 1016.3 hPa ENE 1.4 km/h 6.4 km/h 56% 0.0 mm 204 W/m2
16:22 17.9 °C 9 °C 1016.3 hPa NW 1.4 km/h 3.2 km/h 56% 0.0 mm 221 W/m2
16:27 17.9 °C 9 °C 1016.3 hPa Calm   1.6 km/h 56% 0.0 mm 272 W/m2
16:32 18 °C 9.1 °C 1015.9 hPa NE 3.2 km/h 3.2 km/h 56% 0.0 mm 255 W/m2
16:37 18.1 °C 9.4 °C 1016.3 hPa Calm   3.2 km/h 57% 0.0 mm 250 W/m2
16:42 18.1 °C 9.2 °C 1016.3 hPa West 1.4 km/h 3.2 km/h 56% 0.0 mm 197 W/m2
16:47 18.1 °C 8.9 °C 1015.9 hPa Calm   3.2 km/h 55% 0.0 mm 163 W/m2
16:52 18 °C 8.8 °C 1015.9 hPa WNW 4.7 km/h 4.8 km/h 55% 0.0 mm 149 W/m2
16:57 17.9 °C 8.7 °C 1015.9 hPa NW 1.4 km/h 8 km/h 55% 0.0 mm 141 W/m2
17:02 17.8 °C 8.6 °C 1015.9 hPa NNW 1.4 km/h 1.6 km/h 55% 0.0 mm 139 W/m2
17:07 17.8 °C 8.9 °C 1015.9 hPa NNE 1.4 km/h 8 km/h 56% 0.0 mm 146 W/m2
17:12 17.8 °C 8.9 °C 1015.9 hPa West 1.4 km/h 3.2 km/h 56% 0.0 mm 142 W/m2
17:17 17.7 °C 8.8 °C 1015.9 hPa ESE 1.4 km/h 6.4 km/h 56% 0.0 mm 127 W/m2
17:22 17.7 °C 9.6 °C 1015.6 hPa WNW 3.2 km/h 3.2 km/h 59% 0.0 mm 113 W/m2
17:27 17.6 °C 9.2 °C 1015.6 hPa WNW 1.4 km/h 6.4 km/h 58% 0.0 mm 100 W/m2
17:32 17.4 °C 9.1 °C 1015.6 hPa West 1.4 km/h 6.4 km/h 58% 0.0 mm 91 W/m2
17:37 17.3 °C 9.7 °C 1015.6 hPa Calm   1.6 km/h 61% 0.0 mm 83 W/m2
17:42 17.3 °C 10.2 °C 1015.6 hPa Calm   6.4 km/h 63% 0.0 mm 79 W/m2
17:47 17.1 °C 10.2 °C 1015.6 hPa Calm   1.6 km/h 64% 0.0 mm 72 W/m2
17:52 16.9 °C 10.5 °C 1015.6 hPa Calm     66% 0.0 mm 65 W/m2
17:57 16.8 °C 10.2 °C 1015.6 hPa Calm   1.6 km/h 65% 0.0 mm 58 W/m2
18:02 16.6 °C 10.2 °C 1015.6 hPa Calm     66% 0.0 mm 54 W/m2
18:07 16.5 °C 10.4 °C 1015.6 hPa West 1.4 km/h 3.2 km/h 67% 0.0 mm 53 W/m2
18:12 16.3 °C 10.6 °C 1015.6 hPa Calm     69% 0.0 mm 53 W/m2
18:17 16.2 °C 10.7 °C 1015.6 hPa Calm     70% 0.0 mm 51 W/m2
18:22 16.1 °C 10.8 °C 1015.6 hPa Calm     71% 0.0 mm 47 W/m2
18:27 15.8 °C 10.6 °C 1015.6 hPa Calm     71% 0.0 mm 39 W/m2
18:32 15.7 °C 10.5 °C 1015.6 hPa Calm   1.6 km/h 71% 0.0 mm 33 W/m2
18:37 15.5 °C 10.5 °C 1015.6 hPa Calm   1.6 km/h 72% 0.0 mm 28 W/m2
18:42 15.4 °C 10.6 °C 1015.6 hPa Calm   1.6 km/h 73% 0.0 mm 23 W/m2
18:47 15.2 °C 10.6 °C 1015.6 hPa Calm     74% 0.0 mm 18 W/m2
18:52 15.1 °C 10.7 °C 1015.6 hPa Calm     75% 0.0 mm 14 W/m2
18:58 14.9 °C 10.5 °C 1015.6 hPa Calm     75% 0.0 mm 11 W/m2
19:03 14.7 °C 10.5 °C 1015.6 hPa Calm     76% 0.0 mm 7 W/m2
19:08 14.6 °C 10.4 °C 1015.6 hPa West 1.4 km/h 1.6 km/h 76% 0.0 mm 5 W/m2
19:13 14.4 °C 10.4 °C 1015.6 hPa Calm     77% 0.0 mm 0 W/m2
19:18 14.2 °C 10.2 °C 1015.6 hPa West 1.4 km/h 1.6 km/h 77% 0.0 mm 0 W/m2
19:23 14.1 °C 10.3 °C 1015.6 hPa Calm   1.6 km/h 78% 0.0 mm 0 W/m2
19:28 13.9 °C 10.1 °C 1015.6 hPa Calm     78% 0.0 mm 0 W/m2
19:33 13.8 °C 10.2 °C 1015.6 hPa Calm     79% 0.0 mm 0 W/m2
19:38 13.7 °C 10.3 °C 1015.6 hPa Calm     80% 0.0 mm 0 W/m2
19:43 13.5 °C 10.1 °C 1015.6 hPa Calm   1.6 km/h 80% 0.0 mm 0 W/m2
19:48 13.4 °C 10 °C 1015.6 hPa Calm     80% 0.0 mm 0 W/m2
19:53 13.3 °C 10.1 °C 1015.6 hPa Calm   1.6 km/h 81% 0.0 mm 0 W/m2
19:58 13.2 °C 10 °C 1015.6 hPa Calm   3.2 km/h 81% 0.0 mm 0 W/m2
20:03 13.1 °C 10.1 °C 1015.6 hPa Calm     82% 0.0 mm 0 W/m2
20:08 13.1 °C 10.1 °C 1015.6 hPa Calm   3.2 km/h 82% 0.0 mm 0 W/m2
20:13 12.9 °C 9.9 °C 1015.6 hPa Calm     82% 0.0 mm 0 W/m2
20:18 12.9 °C 10.1 °C 1015.6 hPa Calm     83% 0.0 mm 0 W/m2
20:23 12.8 °C 10 °C 1015.6 hPa Calm     83% 0.0 mm 0 W/m2
20:28 12.8 °C 10 °C 1015.6 hPa Calm     83% 0.0 mm 0 W/m2
20:33 12.8 °C 10 °C 1015.6 hPa Calm     83% 0.0 mm 0 W/m2
20:38 12.8 °C 10.2 °C 1015.6 hPa Calm     84% 0.0 mm 0 W/m2
20:43 12.8 °C 10.2 °C 1015.6 hPa Calm     84% 0.0 mm 0 W/m2
20:48 12.8 °C 10.2 °C 1015.6 hPa Calm   1.6 km/h 84% 0.0 mm 0 W/m2
20:53 12.8 °C 10.2 °C 1015.2 hPa Calm     84% 0.0 mm 0 W/m2
20:58 12.8 °C 10.2 °C 1015.6 hPa Calm     84% 0.0 mm 0 W/m2
21:03 12.8 °C 10.3 °C 1015.2 hPa Calm     85% 0.0 mm 0 W/m2
21:08 12.8 °C 10.3 °C 1015.6 hPa Calm   1.6 km/h 85% 0.0 mm 0 W/m2
21:13 12.8 °C 10.3 °C 1015.6 hPa Calm     85% 0.0 mm 0 W/m2
21:18 12.7 °C 10.2 °C 1015.6 hPa Calm   1.6 km/h 85% 0.0 mm 0 W/m2
21:23 12.7 °C 10.2 °C 1015.6 hPa Calm     85% 0.0 mm 0 W/m2
21:28 12.7 °C 10.2 °C 1015.6 hPa Calm     85% 0.0 mm 0 W/m2
21:33 12.7 °C 10.4 °C 1015.6 hPa Calm     86% 0.0 mm 0 W/m2
21:38 12.7 °C 10.4 °C 1015.6 hPa Calm   1.6 km/h 86% 0.0 mm 0 W/m2
21:43 12.7 °C 10.4 °C 1015.6 hPa West 1.4 km/h 1.6 km/h 86% 0.0 mm 0 W/m2
21:48 12.8 °C 10.3 °C 1015.6 hPa Calm   3.2 km/h 85% 0.0 mm 0 W/m2
21:53 12.8 °C 10.5 °C 1015.6 hPa SW 1.4 km/h 1.6 km/h 86% 0.0 mm 0 W/m2
21:58 12.9 °C 10.4 °C 1015.6 hPa East 1.4 km/h 4.8 km/h 85% 0.0 mm 0 W/m2
22:03 13 °C 10.5 °C 1015.6 hPa Calm   6.4 km/h 85% 0.0 mm 0 W/m2
22:08 13.2 °C 10.6 °C 1015.6 hPa East 1.4 km/h 1.6 km/h 84% 0.0 mm 0 W/m2
22:13 13.2 °C 10.4 °C 1015.6 hPa Calm   6.4 km/h 83% 0.0 mm 0 W/m2
22:18 13.3 °C 10.5 °C 1015.6 hPa Calm   3.2 km/h 83% 0.0 mm 0 W/m2
22:23 13.4 °C 10.4 °C 1015.6 hPa East 1.4 km/h 3.2 km/h 82% 0.0 mm 0 W/m2
22:28 13.6 °C 10.2 °C 1015.6 hPa NW 1.4 km/h 3.2 km/h 80% 0.0 mm 0 W/m2
22:33 13.8 °C 10.2 °C 1015.6 hPa NW 1.4 km/h 6.4 km/h 79% 0.0 mm 0 W/m2
22:38 14.1 °C 10.5 °C 1015.6 hPa NW 6.4 km/h 9.7 km/h 79% 0.0 mm 0 W/m2
22:43 14.2 °C 10.6 °C 1015.6 hPa NW 4.7 km/h 12.9 km/h 79% 0.0 mm 0 W/m2
22:48 14.1 °C 10.7 °C 1015.6 hPa WNW 6.4 km/h 9.7 km/h 80% 0.0 mm 0 W/m2
22:53 14.1 °C 10.7 °C 1015.6 hPa WSW 6.4 km/h 11.3 km/h 80% 0.0 mm 0 W/m2
22:58 13.9 °C 10.7 °C 1015.9 hPa WNW 11.1 km/h 11.3 km/h 81% 0.0 mm 0 W/m2
23:03 13.7 °C 10.7 °C 1015.6 hPa WSW 7.9 km/h 19.3 km/h 82% 0.0 mm 0 W/m2
23:08 13.6 °C 10.8 °C 1015.9 hPa WSW 7.9 km/h 11.3 km/h 83% 0.0 mm 0 W/m2
23:13 13.4 °C 10.8 °C 1015.9 hPa WNW 3.2 km/h 12.9 km/h 84% 0.0 mm 0 W/m2
23:18 13.3 °C 10.7 °C 1015.9 hPa WNW 7.9 km/h 9.7 km/h 84% 0.0 mm 0 W/m2
23:23 13.2 °C 10.7 °C 1015.9 hPa NW 4.7 km/h 11.3 km/h 85% 0.0 mm 0 W/m2
23:28 13.1 °C 10.6 °C 1015.9 hPa NNW 4.7 km/h 11.3 km/h 85% 0.0 mm 0 W/m2
23:33 13 °C 10.7 °C 1015.6 hPa Calm   3.2 km/h 86% 0.0 mm 0 W/m2
23:38 12.9 °C 10.6 °C 1015.9 hPa NW 3.2 km/h 4.8 km/h 86% 0.0 mm 0 W/m2
23:43 12.9 °C 10.6 °C 1015.6 hPa WNW 1.4 km/h 4.8 km/h 86% 0.0 mm 0 W/m2
23:48 12.8 °C 10.7 °C 1015.6 hPa NW 4.7 km/h 8 km/h 87% 0.0 mm 0 W/m2
23:53 12.8 °C 10.7 °C 1015.6 hPa North 4.7 km/h 6.4 km/h 87% 0.0 mm 0 W/m2
23:58 12.8 °C 10.7 °C 1015.6 hPa WNW 1.4 km/h 4.8 km/h 87% 0.0 mm 0 W/m2
Juneau County Weather
Compliments of Weather Underground - 4 mb